Phoenix, AZ (85001)

11:25 AM MST on December 10, 2016 (GMT -0700)
Willo Historic District | | Change Station

Elev 1086 ft 33.47 °N, 112.08 °W | Updated 8 seconds ago

Partly Cloudy
Partly Cloudy
68.0 °F
Feels Like 68.0 °F
N
0.0
Wind Variable Wind from SSW
Gusts 0.0 mph

Today
High -- | Low -- °F
--% Chance of Precip.
Yesterday
High -- | Low -- °F
Precip. -- in
Pressure 30.12 in
Visibility 10.0 miles
Clouds Few 15000 ft
Few 18000 ft
Scattered Clouds 25000 ft
Dew Point 37 °F
Humidity 32%
Rainfall 0.00 in
Snow Depth Not available.
7:21 AM 5:20 PM
Waxing Gibbous, 85% visible
METAR KPHX 101751Z 12006KT 10SM FEW150 FEW180 SCT250 18/03 A3014 RMK AO2 SLP199 T01780028 10178 20083 50004
Pressure 30.12 in
Visibility 10.0 miles
Clouds Few 15000 ft
Few 18000 ft
Scattered Clouds 25000 ft
Dew Point 37 °F
Humidity 32%
Rainfall 0.00 in
Snow Depth Not available.
7:21 AM 5:20 PM
Waxing Gibbous, 85% visible
METAR KPHX 101751Z 12006KT 10SM FEW150 FEW180 SCT250 18/03 A3014 RMK AO2 SLP199 T01780028 10178 20083 50004

10-Day Weather Forecast

Almanac

Astronomy

Dec. 10, 2016 Rise Set
Actual Time
Civil Twilight
Nautical Twilight
Astronomical Twilight
Moon
Length of Visible Light
Length of Day
Tomorrow will be .
, % of the Moon is Illuminated

Today's Extremes

State Highs State Lows

Community

WunderPhotos

Upload Photos

1,956,617 photos uploaded!

WunderBlog® & News

Nearby

Air Quality

  Air Quality AQ Index Pollutant
Not available.

Snow Depth

Station Depth Elevation

Earthquake Activity

City Distance Mag. Time & Date
Minimum magnitude displayed is 2.5.

Coastal Water Temperatures

Place Temperature

Stations

Nearby Weather Stations

Station Location Temp. Windchill Dew Point Humidity Wind Precip. Elev Updated Type
                   

Watches & Warnings

There are currently no watches in effect.